createdAt,value
2017-11-25T00:02:12.018Z,81.60
2017-11-25T00:04:46.502Z,82.10
2017-11-25T00:07:20.628Z,81.50
2017-11-25T00:09:55.408Z,81.90
2017-11-25T00:12:30.006Z,81.90
2017-11-25T00:15:04.786Z,81.80
2017-11-25T00:17:38.913Z,81.30
2017-11-25T00:20:13.558Z,80.90
2017-11-25T00:22:47.728Z,81.10
2017-11-25T00:25:21.628Z,81.00
2017-11-25T00:27:55.616Z,80.90
2017-11-25T00:30:29.426Z,81.10
2017-11-25T00:33:03.289Z,81.20
2017-11-25T00:35:37.510Z,80.70
2017-11-25T00:38:11.255Z,81.70
2017-11-25T00:40:45.117Z,80.10
2017-11-25T00:43:18.736Z,80.10
2017-11-25T00:45:52.585Z,80.10
2017-11-25T00:48:26.391Z,80.00
2017-11-25T00:51:00.166Z,80.10
2017-11-25T00:53:34.036Z,80.20
2017-11-25T00:56:07.714Z,80.10
2017-11-25T00:58:42.257Z,80.40
2017-11-25T01:01:16.114Z,80.00
2017-11-25T01:03:50.696Z,80.70
2017-11-25T01:06:24.585Z,80.70
2017-11-25T01:08:59.207Z,80.50
2017-11-25T01:11:33.320Z,80.40
2017-11-25T01:14:07.856Z,81.60
2017-11-25T01:16:41.995Z,81.10
2017-11-25T01:19:15.739Z,81.30
2017-11-25T01:21:49.532Z,81.00
2017-11-25T01:24:24.729Z,80.20
2017-11-25T01:26:58.316Z,80.20
2017-11-25T01:29:32.605Z,80.40
2017-11-25T01:32:06.981Z,80.40
2017-11-25T01:34:40.935Z,80.20
2017-11-25T01:37:15.565Z,80.60
2017-11-25T01:39:49.610Z,80.60
2017-11-25T01:42:23.320Z,80.00
2017-11-25T01:44:57.334Z,80.40
2017-11-25T01:47:31.163Z,80.70
2017-11-25T01:50:05.405Z,80.90
2017-11-25T01:52:40.126Z,81.20
2017-11-25T01:55:15.293Z,81.40
2017-11-25T01:57:49.541Z,81.30
2017-11-25T02:00:23.547Z,81.40
2017-11-25T02:02:58.254Z,82.70
2017-11-25T02:05:32.288Z,82.30
2017-11-25T02:08:06.107Z,82.70
2017-11-25T02:10:40.463Z,81.40
2017-11-25T02:13:14.652Z,81.40
2017-11-25T02:15:48.410Z,80.80
2017-11-25T02:18:22.271Z,81.60
2017-11-25T02:20:56.898Z,81.70
2017-11-25T02:23:31.167Z,81.60
2017-11-25T02:26:05.699Z,81.70
2017-11-25T02:28:40.510Z,81.40
2017-11-25T02:31:14.467Z,81.30
2017-11-25T02:33:49.009Z,81.50
2017-11-25T02:36:23.976Z,81.60
2017-11-25T02:38:57.853Z,81.60
2017-11-25T02:41:32.510Z,81.00
2017-11-25T02:44:06.937Z,81.00
2017-11-25T02:46:40.610Z,81.20
2017-11-25T02:49:14.385Z,81.40
2017-11-25T02:51:48.153Z,81.00
2017-11-25T02:54:22.676Z,81.30
2017-11-25T02:56:56.679Z,81.20
2017-11-25T02:59:31.370Z,81.10
2017-11-25T03:02:06.552Z,80.60
2017-11-25T03:04:41.539Z,80.50
2017-11-25T03:07:15.618Z,80.50
2017-11-25T03:09:49.552Z,81.20
2017-11-25T03:12:24.194Z,79.00
2017-11-25T03:14:58.263Z,79.10
2017-11-25T03:17:32.822Z,81.30
2017-11-25T03:20:06.840Z,79.30
2017-11-25T03:22:40.785Z,79.70
2017-11-25T03:25:14.562Z,79.60
2017-11-25T03:27:48.500Z,79.80
2017-11-25T03:30:22.731Z,80.70
2017-11-25T03:32:56.508Z,80.60
2017-11-25T03:35:30.202Z,81.10
2017-11-25T03:38:04.246Z,81.00
2017-11-25T03:40:38.231Z,81.60
2017-11-25T03:43:12.022Z,80.60
2017-11-25T03:45:45.783Z,80.70
2017-11-25T03:48:19.676Z,80.70
2017-11-25T03:50:54.271Z,81.10
2017-11-25T03:53:29.168Z,80.20
2017-11-25T03:56:03.115Z,80.60
2017-11-25T03:58:37.620Z,80.80
2017-11-25T04:01:12.590Z,81.40
2017-11-25T04:03:46.708Z,81.40
2017-11-25T04:06:20.586Z,82.00
2017-11-25T04:08:54.442Z,81.80
2017-11-25T04:11:28.388Z,82.00
2017-11-25T04:14:02.811Z,81.90
2017-11-25T04:16:37.659Z,81.40
2017-11-25T04:19:11.908Z,81.30
2017-11-25T04:21:45.992Z,81.10
2017-11-25T04:24:19.695Z,80.90
2017-11-25T04:26:53.506Z,80.90
2017-11-25T04:29:27.167Z,81.40
2017-11-25T04:32:01.035Z,81.70
2017-11-25T04:34:35.425Z,82.30
2017-11-25T04:37:09.401Z,82.20
2017-11-25T04:39:43.136Z,82.40
2017-11-25T04:42:16.981Z,81.90
2017-11-25T04:44:51.519Z,82.30
2017-11-25T04:47:25.523Z,82.30
2017-11-25T04:49:59.984Z,81.90
2017-11-25T04:52:34.796Z,81.60
2017-11-25T04:55:09.487Z,81.00
2017-11-25T04:57:44.677Z,81.80
2017-11-25T05:00:28.721Z,81.80
2017-11-25T05:03:02.647Z,80.90
2017-11-25T05:05:37.163Z,81.80
2017-11-25T05:08:11.884Z,82.00
2017-11-25T05:10:46.707Z,82.10
2017-11-25T05:13:20.810Z,82.10
2017-11-25T05:15:54.769Z,82.50
2017-11-25T05:18:28.607Z,82.90
2017-11-25T05:21:03.070Z,83.20
2017-11-25T05:23:37.286Z,83.30
2017-11-25T05:26:12.108Z,84.70
2017-11-25T05:28:47.098Z,86.20
2017-11-25T05:31:21.194Z,85.50
2017-11-25T05:33:55.731Z,86.40
2017-11-25T05:36:29.953Z,84.90
2017-11-25T05:39:03.804Z,87.00
2017-11-25T05:41:37.585Z,87.10
2017-11-25T05:44:11.412Z,86.20
2017-11-25T05:46:45.344Z,86.10
2017-11-25T05:49:20.021Z,85.60
2017-11-25T05:51:54.254Z,85.50
2017-11-25T05:54:27.941Z,85.90
2017-11-25T05:57:01.836Z,85.10
2017-11-25T05:59:35.607Z,84.90
2017-11-25T06:02:09.567Z,85.20
2017-11-25T06:04:43.384Z,84.80
2017-11-25T06:07:17.869Z,84.90
2017-11-25T06:09:51.985Z,84.80
2017-11-25T06:12:25.803Z,84.90
2017-11-25T06:14:59.637Z,86.00
2017-11-25T06:17:33.244Z,85.90
2017-11-25T06:20:07.141Z,85.90
2017-11-25T06:22:41.759Z,85.90
2017-11-25T06:25:15.920Z,85.90
2017-11-25T06:27:49.988Z,84.20
2017-11-25T06:30:24.020Z,84.60
2017-11-25T06:32:58.821Z,85.00
2017-11-25T06:35:33.001Z,84.20
2017-11-25T06:38:07.161Z,84.40
2017-11-25T06:40:40.863Z,84.90
2017-11-25T06:43:14.657Z,84.10
2017-11-25T06:45:48.786Z,84.30
2017-11-25T06:48:22.545Z,83.80
2017-11-25T06:50:56.362Z,83.80
2017-11-25T06:53:30.035Z,84.30
2017-11-25T06:56:04.591Z,83.50
2017-11-25T06:58:38.767Z,84.20
2017-11-25T07:01:12.505Z,83.80
2017-11-25T07:03:46.279Z,84.00
2017-11-25T07:06:19.865Z,84.30
2017-11-25T07:08:53.868Z,84.60
2017-11-25T07:11:27.787Z,82.20
2017-11-25T07:14:01.673Z,81.90
2017-11-25T07:16:35.389Z,82.40
2017-11-25T07:19:09.249Z,83.40
2017-11-25T07:21:43.785Z,82.70
2017-11-25T07:24:17.946Z,80.20
2017-11-25T07:26:52.122Z,79.90
2017-11-25T07:29:26.448Z,80.80
2017-11-25T07:32:00.277Z,79.60
2017-11-25T07:34:34.977Z,79.40
2017-11-25T07:37:08.984Z,79.20
2017-11-25T07:39:42.883Z,79.80
2017-11-25T07:42:16.708Z,79.40
2017-11-25T07:44:50.509Z,79.10
2017-11-25T07:47:25.184Z,79.90
2017-11-25T07:50:00.241Z,80.90
2017-11-25T07:52:34.898Z,79.70
2017-11-25T07:55:09.318Z,80.50
2017-11-25T07:57:43.124Z,80.30
2017-11-25T08:00:18.417Z,80.90
2017-11-25T08:02:52.623Z,80.90
2017-11-25T08:05:26.267Z,81.00
2017-11-25T08:08:00.030Z,80.90
2017-11-25T08:10:33.675Z,80.10
2017-11-25T08:13:08.396Z,80.80
2017-11-25T08:15:43.287Z,80.60
2017-11-25T08:18:17.381Z,80.30
2017-11-25T08:20:51.151Z,80.30
2017-11-25T08:23:24.964Z,80.60
2017-11-25T08:25:59.566Z,81.30
2017-11-25T08:28:34.385Z,81.40
2017-11-25T08:31:08.543Z,81.00
2017-11-25T08:33:42.371Z,80.50
2017-11-25T08:36:16.248Z,80.70
2017-11-25T08:38:50.743Z,81.30
2017-11-25T08:41:25.591Z,81.40
2017-11-25T08:44:00.204Z,81.50
2017-11-25T08:46:35.664Z,80.70
2017-11-25T08:49:09.406Z,80.60
2017-11-25T08:51:44.090Z,81.30
2017-11-25T08:54:18.714Z,81.10
2017-11-25T08:56:52.920Z,80.20
2017-11-25T08:59:26.775Z,80.30
2017-11-25T09:02:00.641Z,80.00
2017-11-25T09:04:35.365Z,80.60
2017-11-25T09:07:10.394Z,80.50
2017-11-25T09:09:44.517Z,79.60
2017-11-25T09:12:18.392Z,80.00
2017-11-25T09:14:52.284Z,80.20
2017-11-25T09:17:25.941Z,80.20
2017-11-25T09:19:59.693Z,79.90
2017-11-25T09:22:33.318Z,80.00
2017-11-25T09:25:07.247Z,80.20
2017-11-25T09:27:40.987Z,79.90
2017-11-25T09:30:14.855Z,80.20
2017-11-25T09:32:48.487Z,80.00
2017-11-25T09:35:22.255Z,80.10
2017-11-25T09:37:56.775Z,80.00
2017-11-25T09:40:30.727Z,79.30
2017-11-25T09:43:04.545Z,77.60
2017-11-25T09:45:38.535Z,77.40
2017-11-25T09:48:12.350Z,78.40
2017-11-25T09:50:46.324Z,77.40
2017-11-25T09:53:20.860Z,76.70
2017-11-25T09:55:55.556Z,77.00
2017-11-25T09:58:29.697Z,76.80
2017-11-25T10:01:03.274Z,77.50
2017-11-25T10:03:37.221Z,77.10
2017-11-25T10:06:11.077Z,77.60
2017-11-25T10:08:45.210Z,77.70
2017-11-25T10:11:19.922Z,79.00
2017-11-25T10:13:54.667Z,78.90
2017-11-25T10:16:29.055Z,77.60
2017-11-25T10:19:02.963Z,77.60
2017-11-25T10:21:37.927Z,77.50
2017-11-25T10:24:11.835Z,77.40
2017-11-25T10:26:46.443Z,77.10
2017-11-25T10:29:21.294Z,77.20
2017-11-25T10:31:55.404Z,77.20
2017-11-25T10:34:29.869Z,77.00
2017-11-25T10:37:03.869Z,76.00
2017-11-25T10:39:37.641Z,76.20
2017-11-25T10:42:11.542Z,76.60
2017-11-25T10:44:45.118Z,75.70
2017-11-25T10:47:19.874Z,76.00
2017-11-25T10:49:53.864Z,76.00
2017-11-25T10:52:27.639Z,75.90
2017-11-25T10:55:02.007Z,75.30
2017-11-25T10:57:36.337Z,75.30
2017-11-25T11:00:10.222Z,75.40
2017-11-25T11:02:44.155Z,75.50
2017-11-25T11:05:18.611Z,76.20
2017-11-25T11:07:53.011Z,75.00
2017-11-25T11:10:28.207Z,75.40
2017-11-25T11:13:02.137Z,75.70
2017-11-25T11:15:36.624Z,76.00
2017-11-25T11:18:11.222Z,75.80
2017-11-25T11:20:44.882Z,76.10
2017-11-25T11:23:18.569Z,75.70
2017-11-25T11:25:52.436Z,75.70
2017-11-25T11:28:26.297Z,75.40
2017-11-25T11:31:00.253Z,75.00
2017-11-25T11:33:34.031Z,75.30
2017-11-25T11:36:07.942Z,75.50
2017-11-25T11:38:42.510Z,75.40
2017-11-25T11:41:17.672Z,74.70
2017-11-25T11:43:51.377Z,74.00
2017-11-25T11:46:25.152Z,74.20
2017-11-25T11:48:58.872Z,72.40
2017-11-25T11:51:32.693Z,72.30
2017-11-25T11:54:06.664Z,72.80
2017-11-25T11:59:15.980Z,72.30
2017-11-25T12:01:49.734Z,71.80
2017-11-25T12:04:24.692Z,73.20
2017-11-25T12:06:58.801Z,71.40
2017-11-25T12:09:34.013Z,71.30
2017-11-25T12:12:08.083Z,70.60
2017-11-25T12:14:41.755Z,70.40
2017-11-25T12:17:15.573Z,70.50
2017-11-25T12:19:50.209Z,70.00
2017-11-25T12:22:24.150Z,69.40
2017-11-25T12:24:58.819Z,68.80
2017-11-25T12:27:34.699Z,68.50
2017-11-25T12:30:08.996Z,68.90
2017-11-25T12:32:42.917Z,69.00
2017-11-25T12:35:17.811Z,68.70
2017-11-25T12:37:53.534Z,69.80
2017-11-25T12:40:27.818Z,69.00
2017-11-25T12:43:01.569Z,69.30
2017-11-25T12:45:35.420Z,69.00
2017-11-25T12:48:09.881Z,69.70
2017-11-25T12:50:44.165Z,68.50
2017-11-25T12:53:17.758Z,68.10
2017-11-25T12:55:52.012Z,69.50
2017-11-25T12:58:26.018Z,68.00
2017-11-25T13:01:00.814Z,68.10
2017-11-25T13:03:34.876Z,68.10
2017-11-25T13:06:09.448Z,69.00
2017-11-25T13:08:43.448Z,67.80
2017-11-25T13:11:17.415Z,67.90
2017-11-25T13:13:52.034Z,69.50
2017-11-25T13:16:27.118Z,69.60
2017-11-25T13:19:01.027Z,69.00
2017-11-25T13:21:34.823Z,70.10
2017-11-25T13:24:08.738Z,68.30
2017-11-25T13:26:42.401Z,70.00
2017-11-25T13:29:16.234Z,69.60
2017-11-25T13:31:50.008Z,70.20
2017-11-25T13:34:24.870Z,70.70
2017-11-25T13:36:59.242Z,70.60
2017-11-25T13:39:33.996Z,69.60
2017-11-25T13:42:08.275Z,69.60
2017-11-25T13:44:43.174Z,70.00
2017-11-25T13:47:17.338Z,70.00
2017-11-25T13:49:51.348Z,69.90
2017-11-25T13:52:25.294Z,70.00
2017-11-25T13:54:59.081Z,69.60
2017-11-25T13:57:33.606Z,69.60
2017-11-25T14:00:07.639Z,69.40
2017-11-25T14:02:41.458Z,69.60
2017-11-25T14:05:15.135Z,70.50
2017-11-25T14:07:49.564Z,70.00
2017-11-25T14:10:23.704Z,69.10
2017-11-25T14:12:58.412Z,69.50
2017-11-25T14:15:33.325Z,69.70
2017-11-25T14:18:08.006Z,69.70
2017-11-25T14:20:42.914Z,69.20
2017-11-25T14:23:16.914Z,69.30
2017-11-25T14:25:50.810Z,69.80
2017-11-25T14:28:24.529Z,69.40
2017-11-25T14:30:58.475Z,69.50
2017-11-25T14:33:32.392Z,69.70
2017-11-25T14:36:06.440Z,69.30
2017-11-25T14:38:40.087Z,69.20
2017-11-25T14:41:13.865Z,68.50
2017-11-25T14:43:47.578Z,69.00
2017-11-25T14:46:21.406Z,69.10
2017-11-25T14:48:55.291Z,68.60
2017-11-25T14:51:29.087Z,68.80
2017-11-25T14:54:02.813Z,68.50
2017-11-25T14:56:36.798Z,68.90
2017-11-25T14:59:10.696Z,69.30
2017-11-25T15:01:44.922Z,69.10
2017-11-25T15:04:20.359Z,69.50
2017-11-25T15:06:55.080Z,68.90
2017-11-25T15:09:29.319Z,68.90
2017-11-25T15:12:03.077Z,68.90
2017-11-25T15:14:36.722Z,69.60
2017-11-25T15:17:10.533Z,69.20
2017-11-25T15:19:45.037Z,70.30
2017-11-25T15:22:19.973Z,70.00
2017-11-25T15:24:53.848Z,69.30
2017-11-25T15:27:27.585Z,69.10
2017-11-25T15:30:02.086Z,70.90
2017-11-25T15:32:36.119Z,69.70
2017-11-25T15:35:09.787Z,69.30
2017-11-25T15:37:44.342Z,70.00
2017-11-25T15:40:18.762Z,69.70
2017-11-25T15:42:52.527Z,69.70
2017-11-25T15:45:26.232Z,70.00
2017-11-25T15:47:59.998Z,70.30
2017-11-25T15:50:34.663Z,71.10
2017-11-25T15:53:08.731Z,70.70
2017-11-25T15:55:42.636Z,70.40
2017-11-25T15:58:16.797Z,70.70
2017-11-25T16:00:51.235Z,70.50
2017-11-25T16:03:25.782Z,70.80
2017-11-25T16:05:59.793Z,70.30
2017-11-25T16:08:35.115Z,70.30
2017-11-25T16:11:09.106Z,70.30
2017-11-25T16:13:43.649Z,69.60
2017-11-25T16:16:18.167Z,70.10
2017-11-25T16:18:52.262Z,69.40
2017-11-25T16:21:26.129Z,69.40
2017-11-25T16:24:00.627Z,69.90
2017-11-25T16:26:34.625Z,69.60
2017-11-25T16:29:08.288Z,69.30
2017-11-25T16:31:42.023Z,69.00
2017-11-25T16:34:15.826Z,69.10
2017-11-25T16:36:49.631Z,69.20
2017-11-25T16:39:23.545Z,69.00
2017-11-25T16:41:57.310Z,69.10
2017-11-25T16:44:31.899Z,69.80
2017-11-25T16:47:05.830Z,69.50
2017-11-25T16:49:39.554Z,69.50
2017-11-25T16:52:13.966Z,69.60
2017-11-25T16:54:47.787Z,68.70
2017-11-25T16:57:22.408Z,68.70
2017-11-25T16:59:57.151Z,67.70
2017-11-25T17:02:30.932Z,68.20
2017-11-25T17:05:04.838Z,68.10
2017-11-25T17:07:38.592Z,67.70
2017-11-25T17:10:12.295Z,67.70
2017-11-25T17:12:46.070Z,67.10
2017-11-25T17:15:20.627Z,67.00
2017-11-25T17:17:54.696Z,66.90
2017-11-25T17:20:28.454Z,66.70
2017-11-25T17:23:02.296Z,66.70
2017-11-25T17:25:36.062Z,66.60
2017-11-25T17:28:09.683Z,66.60
2017-11-25T17:30:44.053Z,67.40
2017-11-25T17:33:19.442Z,67.40
2017-11-25T17:35:54.731Z,67.80
2017-11-25T17:38:28.760Z,67.30
2017-11-25T17:41:03.287Z,67.20
2017-11-25T17:43:37.980Z,67.90
2017-11-25T17:46:12.822Z,68.10
2017-11-25T17:48:48.110Z,67.90
2017-11-25T17:51:22.417Z,68.00
2017-11-25T17:53:56.067Z,68.20
2017-11-25T17:56:29.722Z,68.70
2017-11-25T17:59:03.924Z,68.70
2017-11-25T18:01:38.217Z,69.10
2017-11-25T18:04:11.984Z,69.30
2017-11-25T18:06:46.284Z,69.30
2017-11-25T18:09:20.804Z,69.40
2017-11-25T18:11:55.249Z,69.40
2017-11-25T18:14:29.818Z,69.60
2017-11-25T18:17:03.957Z,69.80
2017-11-25T18:19:38.657Z,70.70
2017-11-25T18:22:13.461Z,70.70
2017-11-25T18:24:48.008Z,71.30
2017-11-25T18:27:22.594Z,72.70
2017-11-25T18:29:56.742Z,71.40
2017-11-25T18:32:30.600Z,71.60
2017-11-25T18:35:04.321Z,71.30
2017-11-25T18:37:38.126Z,71.60
2017-11-25T18:40:12.072Z,71.40
2017-11-25T18:42:46.600Z,71.40
2017-11-25T18:45:20.441Z,71.30
2017-11-25T18:47:54.251Z,71.70
2017-11-25T18:50:28.438Z,71.60
2017-11-25T18:53:02.741Z,72.00
2017-11-25T18:55:36.962Z,72.00
2017-11-25T18:58:12.097Z,72.70
2017-11-25T19:00:47.337Z,73.50
2017-11-25T19:03:21.471Z,72.60
2017-11-25T19:05:56.153Z,72.90
2017-11-25T19:08:30.658Z,72.80
2017-11-25T19:11:05.120Z,72.90
2017-11-25T19:13:39.101Z,73.00
2017-11-25T19:16:13.721Z,73.30
2017-11-25T19:18:48.596Z,72.90
2017-11-25T19:21:22.472Z,73.20
2017-11-25T19:23:56.374Z,73.40
2017-11-25T19:26:30.784Z,74.50
2017-11-25T19:29:05.206Z,73.30
2017-11-25T19:31:40.104Z,73.30
2017-11-25T19:34:15.969Z,74.40
2017-11-25T19:36:50.482Z,73.60
2017-11-25T19:39:26.182Z,73.40
2017-11-25T19:41:59.806Z,73.60
2017-11-25T19:44:34.200Z,73.80
2017-11-25T19:47:09.392Z,74.50
2017-11-25T19:49:43.682Z,74.00
2017-11-25T19:52:17.792Z,74.20
2017-11-25T19:54:52.412Z,74.00
2017-11-25T19:57:26.608Z,74.30
2017-11-25T20:00:00.656Z,74.30
2017-11-25T20:02:35.235Z,74.40
2017-11-25T20:05:10.269Z,74.80
2017-11-25T20:07:44.800Z,74.50
2017-11-25T20:10:19.907Z,74.40
2017-11-25T20:12:53.749Z,74.50
2017-11-25T20:15:27.573Z,74.60
2017-11-25T20:18:01.491Z,74.60
2017-11-25T20:20:35.703Z,74.70
2017-11-25T20:23:10.607Z,74.60
2017-11-25T20:25:45.399Z,74.70
2017-11-25T20:28:19.941Z,74.60
2017-11-25T20:30:54.210Z,74.70
2017-11-25T20:33:28.350Z,74.70
2017-11-25T20:36:03.226Z,74.60
2017-11-25T20:38:38.404Z,74.50
2017-11-25T20:41:12.777Z,74.50
2017-11-25T20:43:46.695Z,74.50
2017-11-25T20:46:20.966Z,74.60
2017-11-25T20:48:55.406Z,74.50
2017-11-25T20:51:29.407Z,74.20
2017-11-25T20:54:03.570Z,74.10
2017-11-25T20:56:37.802Z,74.20
2017-11-25T20:59:11.608Z,74.40
2017-11-25T21:01:45.714Z,74.40
2017-11-25T21:04:19.614Z,73.60
2017-11-25T21:06:54.537Z,73.90
2017-11-25T21:09:29.116Z,74.40
2017-11-25T21:12:04.065Z,73.10
2017-11-25T21:14:38.412Z,73.00
2017-11-25T21:17:13.234Z,72.70
2017-11-25T21:19:47.553Z,72.80
2017-11-25T21:22:21.207Z,72.70
2017-11-25T21:24:54.953Z,72.60
2017-11-25T21:27:29.691Z,72.80
2017-11-25T21:30:04.022Z,71.90
2017-11-25T21:32:39.141Z,71.70
2017-11-25T21:35:13.264Z,72.00
2017-11-25T21:37:47.834Z,71.90
2017-11-25T21:40:21.906Z,71.80
2017-11-25T21:42:55.504Z,71.70
2017-11-25T21:45:30.204Z,72.10
2017-11-25T21:48:04.249Z,72.00
2017-11-25T21:50:37.997Z,71.90
2017-11-25T21:53:11.592Z,72.00
2017-11-25T21:55:46.127Z,72.50
2017-11-25T21:58:20.202Z,71.90
2017-11-25T22:00:53.968Z,71.80
2017-11-25T22:03:27.728Z,71.70
2017-11-25T22:06:01.707Z,71.60
2017-11-25T22:08:35.776Z,71.70
2017-11-25T22:11:09.387Z,71.40
2017-11-25T22:13:43.151Z,71.60
2017-11-25T22:16:17.426Z,71.60
2017-11-25T22:18:51.816Z,72.50
2017-11-25T22:21:25.949Z,70.50
2017-11-25T22:24:00.214Z,72.20
2017-11-25T22:26:34.702Z,72.30
2017-11-25T22:29:08.475Z,72.40
2017-11-25T22:31:42.367Z,72.40
2017-11-25T22:34:17.129Z,73.10
2017-11-25T22:36:52.368Z,73.10
2017-11-25T22:39:27.297Z,72.70
2017-11-25T22:42:01.782Z,73.00
2017-11-25T22:44:35.790Z,73.50
2017-11-25T22:47:10.343Z,73.70
2017-11-25T22:49:45.217Z,73.90
2017-11-25T22:52:20.008Z,74.00
2017-11-25T22:54:54.275Z,73.60
2017-11-25T22:57:28.649Z,73.50
2017-11-25T23:00:02.860Z,73.60
2017-11-25T23:02:36.697Z,73.50
2017-11-25T23:05:11.247Z,73.90
2017-11-25T23:07:46.222Z,73.80
2017-11-25T23:10:20.138Z,73.00
2017-11-25T23:12:54.842Z,73.50
2017-11-25T23:15:29.468Z,72.90
2017-11-25T23:18:03.906Z,72.90
2017-11-25T23:20:38.138Z,73.00
2017-11-25T23:23:11.886Z,73.20
2017-11-25T23:25:45.747Z,73.60
2017-11-25T23:28:20.431Z,74.00
2017-11-25T23:30:55.488Z,73.50
2017-11-25T23:33:29.595Z,73.30
2017-11-25T23:36:03.462Z,73.10
2017-11-25T23:38:37.947Z,73.20
2017-11-25T23:41:14.361Z,73.00
2017-11-25T23:43:49.746Z,73.20
2017-11-25T23:46:23.863Z,73.30
2017-11-25T23:48:57.963Z,73.10
2017-11-25T23:51:31.768Z,73.00
2017-11-25T23:54:06.467Z,73.50
2017-11-25T23:56:40.612Z,75.30
2017-11-25T23:59:14.206Z,73.30
